Flight Track Log - Related Links

Times and Time Zones

All times are in EDT time to prevent confusion due to time zone crossing. See the ENY3190 flight status page for this flight to view local times or setup timezone preferences in your user account.

Time Position Orientation Groundspeed Altitude Reporting Facility
EDT Latitude Longitude Course Direction KTS MPH feet Rate Location/Type
Tue 06:49:35 AM 40.8856 -85.3161 229° Southwest 197 227 5,300  Level Chicago Center
Tue 06:50:00 AM 40.7010 -85.5651 229° Southwest  Level FlightAware Approximate
Tue 06:50:36 AM 40.8267 -85.4022 228° Southwest 255 293 7,800  Level Chicago Center
Tue 06:51:00 AM 40.6399 -85.6655 222° Southwest  Level FlightAware Approximate
Tue 06:51:37 AM 40.7675 -85.4628 218° Southwest 276 318 9,700  Level Chicago Center
Tue 06:52:00 AM 40.5689 -85.7550 229° Southwest  Level FlightAware Approximate
Tue 06:52:38 AM 40.7053 -85.5236 217° Southwest 286 329 11,300  Level Chicago Center
Tue 06:53:00 AM 40.4989 -85.8547 222° Southwest  Level FlightAware Approximate
Tue 06:53:39 AM 40.6539 -85.6014 229° Southwest 305 351 12,600  Level Chicago Center
Tue 06:54:00 AM 40.4238 -85.9476 229° Southwest  Level FlightAware Approximate
Tue 06:54:24 AM 40.6050 -85.6725 228° Southwest 315 362 13,700  Level Indianapolis Center
Tue 06:55:40 AM 40.5289 -85.7833 228° Southwest 339 390 15,300 1,314 Climbing Chicago Center
Tue 06:56:41 AM 40.4639 -85.8758 227° Southwest 345 397 16,700 1,328 Climbing Chicago Center
Tue 06:57:42 AM 40.4003 -85.9689 228° Southwest 345 397 18,000 1,349 Climbing Chicago Center
Tue 06:59:30 AM 40.2858 -86.1322 227° Southwest 340 391 20,500 1,456 Climbing Indianapolis Center
Tue 07:00:31 AM 40.2083 -86.2422 227° Southwest 342 394 22,100 1,230 Climbing Indianapolis Center
Tue 07:01:32 AM 40.1431 -86.3353 227° Southwest 344 396 23,000 738 Climbing Indianapolis Center
Tue 07:02:33 AM 40.0722 -86.4344 227° Southwest 367 422 23,600 836 Climbing Indianapolis Center
Tue 07:03:34 AM 40.0006 -86.5353 227° Southwest 378 435 24,700 1,073 Climbing Indianapolis Center
Tue 07:04:36 AM 39.9242 -86.6272 223° Southwest 381 438 25,800 1,073 Climbing Indianapolis Center
Tue 07:05:37 AM 39.8414 -86.7103 218° Southwest 381 438 26,900 1,131 Climbing Indianapolis Center
Tue 07:06:38 AM 39.7589 -86.7925 217° Southwest 381 438 28,100 1,220 Climbing Indianapolis Center
Tue 07:07:40 AM 39.6611 -86.8911 218° Southwest 378 435 29,400 1,174 Climbing Indianapolis Center
Tue 07:09:42 AM 39.5153 -87.0783 225° Southwest 376 433 31,700 1,103 Climbing Kansas City Center
Tue 07:10:45 AM 39.4592 -87.1908 237° Southwest 375 432 32,800 1,033 Climbing Kansas City Center
Tue 07:11:44 AM 39.4031 -87.3008 237° Southwest 374 430 33,800 992 Climbing Indianapolis Center
Tue 07:12:46 AM 39.3456 -87.4125 236° Southwest 374 430 34,800 927 Climbing Indianapolis Center
Tue 07:13:47 AM 39.2872 -87.5239 236° Southwest 374 430 35,700 590 Climbing Indianapolis Center
Tue 07:14:48 AM 39.2294 -87.6378 237° Southwest 374 430 36,000 146 Climbing Indianapolis Center
Tue 07:15:50 AM 39.1669 -87.7561 236° Southwest 392 451 36,000  Level Indianapolis Center
Tue 07:16:51 AM 39.0919 -87.9000 236° Southwest 399 459 36,000  Level Indianapolis Center
Tue 07:17:52 AM 39.0292 -88.0214 236° Southwest 403 464 36,000  Level Indianapolis Center
Tue 07:18:54 AM 38.9650 -88.1425 236° Southwest 408 470 36,000  Level Indianapolis Center
Tue 07:19:55 AM 38.9017 -88.2617 236° Southwest 408 470 36,000  Level Indianapolis Center
Tue 07:20:56 AM 38.8392 -88.3797 236° Southwest 404 465 36,000  Level Indianapolis Center
Tue 07:21:58 AM 38.7769 -88.4969 236° Southwest 402 463 36,000  Level Indianapolis Center
Tue 07:22:55 AM 38.7128 -88.6158 235° Southwest 401 461 36,000  Level Kansas City Center
Tue 07:23:54 AM 38.6586 -88.7164 235° Southwest 398 458 36,000  Level Kansas City Center
Tue 07:24:57 AM 38.5875 -88.8511 236° Southwest 397 457 36,000  Level Kansas City Center
Tue 07:25:57 AM 38.5231 -88.9656 234° Southwest 396 456 36,000  Level Kansas City Center
Tue 07:26:59 AM 38.4642 -89.0750 236° Southwest 391 450 36,000  Level Kansas City Center
Tue 07:28:00 AM 38.4008 -89.1875 234° Southwest 391 450 36,000  Level Kansas City Center
Tue 07:29:01 AM 38.3375 -89.2794 229° Southwest 394 453 36,000  Level Kansas City Center
Tue 07:30:01 AM 38.2472 -89.4092 228° Southwest 401 461 36,000  Level Kansas City Center
Tue 07:31:02 AM 38.1733 -89.5169 229° Southwest 401 461 36,000  Level Kansas City Center
Tue 07:32:03 AM 38.0983 -89.6261 229° Southwest 404 465 36,000  Level Kansas City Center
Tue 07:33:03 AM 38.0206 -89.7375 228° Southwest 407 468 36,000  Level Kansas City Center
Tue 07:34:04 AM 37.9442 -89.8464 228° Southwest 410 472 36,000  Level Kansas City Center
Tue 07:35:06 AM 37.8681 -89.9572 229° Southwest 413 475 36,000  Level Kansas City Center
Tue 07:36:05 AM 37.7931 -90.0628 228° Southwest 413 475 36,000  Level Kansas City Center
Tue 07:37:08 AM 37.7181 -90.1706 229° Southwest 413 475 36,000  Level Kansas City Center
Tue 07:38:09 AM 37.6478 -90.2794 231° Southwest 410 472 36,000  Level Kansas City Center
Tue 07:39:08 AM 37.5867 -90.3956 236° Southwest 402 463 36,000  Level Kansas City Center
Tue 07:40:11 AM 37.5236 -90.5122 236° Southwest 401 461 36,000  Level Kansas City Center
Tue 07:41:12 AM 37.4611 -90.6283 236° Southwest 401 461 36,000  Level Kansas City Center
Tue 07:42:12 AM 37.3986 -90.7439 236° Southwest 401 461 36,000  Level Kansas City Center
Tue 07:43:14 AM 37.3353 -90.8625 236° Southwest 401 461 36,000  Level Kansas City Center
Tue 07:44:14 AM 37.2589 -91.0036 236° Southwest 401 461 36,000  Level Kansas City Center
Tue 07:45:16 AM 37.1931 -91.1219 235° Southwest 404 465 36,000  Level Kansas City Center
Tue 07:46:18 AM 37.1261 -91.2433 235° Southwest 415 478 36,000  Level Kansas City Center
Tue 07:47:19 AM 37.0619 -91.3611 236° Southwest 413 475 36,000  Level Kansas City Center
Tue 07:48:26 AM 36.9969 -91.4806 236° Southwest 411 473 36,000  Level Memphis Center
Tue 07:49:27 AM 36.9178 -91.6244 235° Southwest 414 476 36,000  Level Memphis Center
Tue 07:50:29 AM 36.8517 -91.7444 235° Southwest 414 476 36,000  Level Memphis Center
Tue 07:51:30 AM 36.7842 -91.8633 235° Southwest 415 478 36,000  Level Memphis Center
Tue 07:52:32 AM 36.7178 -91.9828 235° Southwest 416 479 36,000  Level Memphis Center
Tue 07:53:33 AM 36.6508 -92.1011 235° Southwest 416 479 36,000  Level Memphis Center
Tue 07:54:35 AM 36.5842 -92.2197 235° Southwest 416 479 36,000  Level Memphis Center
Tue 07:55:37 AM 36.5167 -92.3389 235° Southwest 416 479 36,000  Level Memphis Center
Tue 07:56:38 AM 36.4494 -92.4567 235° Southwest 418 481 36,000  Level Memphis Center
Tue 07:57:40 AM 36.3819 -92.5744 235° Southwest 419 482 36,000  Level Memphis Center
Tue 07:58:41 AM 36.3008 -92.7167 235° Southwest 419 482 36,000  Level Memphis Center
Tue 07:59:43 AM 36.2314 -92.8344 234° Southwest 420 483 36,000  Level Memphis Center
Tue 08:00:44 AM 36.1631 -92.9531 235° Southwest 422 486 36,000  Level Memphis Center
Tue 08:01:46 AM 36.0956 -93.0733 235° Southwest 424 488 36,000  Level Memphis Center
Tue 08:02:48 AM 36.0256 -93.1919 234° Southwest 426 490 36,000  Level Memphis Center
Tue 08:03:49 AM 35.9569 -93.3094 234° Southwest 426 490 36,000  Level Memphis Center
Tue 08:04:51 AM 35.8739 -93.4517 234° Southwest 427 491 36,000  Level Memphis Center
Tue 08:05:53 AM 35.8050 -93.5697 234° Southwest 427 491 36,000  Level Memphis Center
Tue 08:06:54 AM 35.7353 -93.6881 234° Southwest 427 491 36,000  Level Memphis Center
Tue 08:07:56 AM 35.6653 -93.8075 234° Southwest 428 493 36,000  Level Memphis Center
Tue 08:08:58 AM 35.5942 -93.9256 233° Southwest 428 493 36,000  Level Memphis Center
Tue 08:10:00 AM 35.5233 -94.0453 234° Southwest 430 495 36,000  Level Memphis Center
Tue 08:11:01 AM 35.4392 -94.1867 234° Southwest 430 495 36,000  Level Memphis Center
Tue 08:12:03 AM 35.3644 -94.3025 232° Southwest 432 497 36,000  Level Memphis Center
Tue 08:13:05 AM 35.2722 -94.3994 221° Southwest 438 504 36,000  Level Memphis Center
Tue 08:14:07 AM 35.1825 -94.4967 222° Southwest 435 501 36,000  Level Memphis Center
Tue 08:15:09 AM 35.0919 -94.5925 221° Southwest 434 499 36,000  Level Memphis Center
Tue 08:16:10 AM 34.9925 -94.7008 222° Southwest 431 496 36,000  Level Memphis Center
Tue 08:17:12 AM 34.9039 -94.7961 221° Southwest 428 493 36,000  Level Memphis Center
Tue 08:17:49 AM 34.8564 -94.8481 222° Southwest 427 491 36,000  Level Fort Worth Center
Tue 08:18:51 AM 34.7683 -94.9422 221° Southwest 425 489 36,000 -98 Level Fort Worth Center
Tue 08:19:52 AM 34.6806 -95.0369 222° Southwest 425 489 35,800 -976 Descending Fort Worth Center
Tue 08:20:54 AM 34.5739 -95.1508 221° Southwest 426 490 34,000 -1,548 Descending Fort Worth Center
Tue 08:21:56 AM 34.4872 -95.2428 221° Southwest 422 486 32,600 -1,415 Descending Fort Worth Center
Tue 08:22:57 AM 34.3964 -95.3386 221° Southwest 431 496 31,100 -1,415 Descending Fort Worth Center
Tue 08:23:59 AM 34.3042 -95.4350 221° Southwest 439 505 29,700 -1,403 Descending Fort Worth Center
Tue 08:25:01 AM 34.2097 -95.5344 221° Southwest 447 514 28,200 -1,500 Descending Fort Worth Center
Tue 08:26:03 AM 34.1094 -95.6403 221° Southwest 431 496 26,600 -1,659 Descending Fort Worth Center
Tue 08:27:04 AM 34.0256 -95.7278 221° Southwest 436 502 24,800 -2,146 Descending Fort Worth Center
Tue 08:28:06 AM 33.9139 -95.8458 221° Southwest 445 512 22,200 -2,274 Descending Fort Worth Center
Tue 08:29:08 AM 33.8217 -95.9400 220° Southwest 440 506 20,100 -2,129 Descending Fort Worth Center
Tue 08:30:10 AM 33.7283 -96.0383 221° Southwest 417 480 17,800 -2,195 Descending Fort Worth Center
Tue 08:31:11 AM 33.6431 -96.1247 220° Southwest 404 465 15,600 -2,049 Descending Fort Worth Center
Tue 08:32:13 AM 33.5608 -96.2094 221° Southwest 394 453 13,600 -1,935 Descending Fort Worth Center
Tue 08:33:15 AM 33.4797 -96.3022 224° Southwest 377 434 11,600 -1,258 Descending Fort Worth Center
Tue 08:34:17 AM 33.4161 -96.3786 225° Southwest 320 368 11,000 -484 Descending Fort Worth Center
Tue 08:35:19 AM 33.3683 -96.4597 235° Southwest 290 334 10,600 -823 Descending Fort Worth Center
Tue 08:36:21 AM 33.3431 -96.5481 251° West 281 323 9,300 -1,258 Descending Fort Worth Center
Tue 08:37:23 AM 33.3147 -96.6419 250° West 281 323 8,000 -1,210 Descending Fort Worth Center
Tue 08:38:25 AM 33.2811 -96.7217 243° Southwest 273 314 6,800 -1,161 Descending Fort Worth Center
Tue 08:39:27 AM 33.2439 -96.8044 242° Southwest 268 308 5,600 -871 Descending Fort Worth Center
Tue 08:40:29 AM 33.2061 -96.8753 237° Southwest 254 292 5,000 -339 Descending Fort Worth Center
Tue 08:41:31 AM 33.1661 -96.9247 226° Southwest 205 236 4,900 -677 Descending Fort Worth Center
Tue 08:42:33 AM 33.1267 -96.9733 226° Southwest 194 223 3,600 -919 Descending Fort Worth Center
Tue 08:43:35 AM 33.0892 -97.0169 224° Southwest 191 220 3,000 -384 Descending Fort Worth Center
Tue 08:44:38 AM 33.0333 -97.0264 188° South 190 219 2,800 -528 Descending Fort Worth Center
Tue 08:45:40 AM 32.9875 -97.0267 180° South 165 190 1,900 -823 Descending Fort Worth Center
Tue 08:46:42 AM 32.9436 -97.0261 179° South 148 170 1,100 -581 Descending Fort Worth Center
Tue 08:47:44 AM 32.9089 -97.0264 180° South 141 162 700 -387 Descending Fort Worth Center

Login

Don't have an account? Register now (free) for customized features, flight alerts, and more!